Darrow, LA

9:10 AM CST on February 26, 2017 (GMT -0600)
Gonzales

Weather History for KL38 - March, 2013

Change the Weather History Date:

Wednesday, March 20, 2013

  Actual Average (KBTR) Record (KBTR)
Temperature  
Mean Temperature 62 °F -  
Max Temperature 71 °F 72 °F 90 °F (1921)
Min Temperature 52 °F 51 °F 27 °F (1965)
Degree Days  
Heating Degree Days 4    
Growing Degree Days 12 (Base 50)    
Moisture  
Dew Point 39 °F    
Average Humidity 48    
Maximum Humidity 94    
Minimum Humidity 20    
Precipitation  
Precipitation 0.01 in - - ()
Sea Level Pressure  
Sea Level Pressure 30.07 in    
Wind  
Wind Speed 5 mph (North)    
Max Wind Speed 16 mph    
Max Gust Speed 22 mph    
Visibility 10 miles    
Events Rain    
Averages and records for this station are not official NWS values.
T = Trace of Precipitation, MM = Missing Value Source: NWS Daily Summary

Daily Weather History Graph

Daily Weather History Graph

Search for Another Location

Airport or City:

Trip Planner

Search our weather history database for the weather conditions in past years. The results will help you decide how hot, cold, wet, or windy it might be!

Date:

Astronomy

Mar. 20, 2013 Rise Set
Actual Time 7:07 AM CDT 7:15 PM CDT
Civil Twilight 6:43 AM CDT 7:39 PM CDT
Nautical Twilight 6:15 AM CDT 8:07 PM CDT
Astronomical Twilight 5:47 AM CDT 8:35 PM CDT
Moon 1:13 PM CDT (3/20) 2:24 AM CDT (3/20)
Length of Visible Light 12h 55m
Length of Day
12h 08m
First Quarter, 59% of the Moon is Illuminated
Mar 20
First Quarter
Mar 27
Full
Apr 2
Last Quarter
Apr 10
New
Apr 18
First Quarter

Hourly Weather History & Observations

Time (CDT) Temp. Dew Point Humidity Pressure Visibility Wind Dir Wind Speed Gust Speed Precip Events Conditions
12:15 AM 59.2 °F 56.8 °F 92% 30.00 in 10.0 mi Calm Calm - N/A   Mostly Cloudy
12:35 AM 59.9 °F 57.7 °F 93% 29.99 in 10.0 mi Calm Calm - N/A   Scattered Clouds
12:55 AM 59.9 °F 58.1 °F 94% 29.99 in 10.0 mi North 3.5 mph - N/A   Clear
1:15 AM 59.9 °F 57.7 °F 93% 30.00 in 10.0 mi North 5.8 mph - N/A   Clear
1:35 AM 59.9 °F 56.8 °F 90% 30.01 in 10.0 mi North 5.8 mph - N/A   Scattered Clouds
1:55 AM 60.1 °F 54.5 °F 82% 30.01 in 10.0 mi North 5.8 mph - N/A   Overcast
2:15 AM 60.4 °F 51.8 °F 73% 30.01 in 10.0 mi NNE 6.9 mph - N/A   Overcast
2:35 AM 61.0 °F 48.0 °F 62% 30.01 in 10.0 mi NE 4.6 mph - N/A   Mostly Cloudy
2:55 AM 61.7 °F 45.3 °F 55% 30.00 in 10.0 mi NE 4.6 mph - N/A   Scattered Clouds
3:15 AM 61.2 °F 43.9 °F 53% 29.98 in 10.0 mi NE 4.6 mph - N/A   Clear
3:35 AM 61.7 °F 42.8 °F 50% 29.98 in 10.0 mi East 3.5 mph - N/A   Clear
3:55 AM 61.3 °F 42.1 °F 49% 29.99 in 10.0 mi NNE 4.6 mph - N/A   Clear
4:15 AM 60.1 °F 42.1 °F 51% 30.01 in 10.0 mi North 5.8 mph - N/A   Clear
4:35 AM 60.1 °F 41.2 °F 50% 30.02 in 10.0 mi North 4.6 mph - N/A   Clear
4:55 AM 60.1 °F 40.5 °F 48% 30.03 in 10.0 mi North 8.1 mph - N/A   Clear
5:15 AM 59.4 °F 40.6 °F 50% 30.06 in 10.0 mi NW 4.6 mph - N/A   Mostly Cloudy
5:35 AM 59.4 °F 39.4 °F 48% 30.01 in 10.0 mi North 15.0 mph 19.6 mph N/A   Overcast
5:55 AM 59.0 °F 39.0 °F 48% 30.04 in 10.0 mi North 16.1 mph 21.9 mph N/A   Scattered Clouds
6:15 AM 59.0 °F 38.3 °F 46% 30.05 in 10.0 mi North 9.2 mph 18.4 mph N/A   Clear
6:35 AM 58.6 °F 37.9 °F 46% 30.09 in 10.0 mi North 6.9 mph - N/A   Clear
6:55 AM 58.3 °F 37.9 °F 47% 30.10 in 10.0 mi North 4.6 mph - N/A   Scattered Clouds
7:15 AM 57.6 °F 37.9 °F 48% 30.11 in 10.0 mi North 4.6 mph - N/A   Scattered Clouds
7:35 AM 57.6 °F 38.3 °F 49% 30.12 in 10.0 mi North 4.6 mph - N/A   Scattered Clouds
7:55 AM 57.2 °F 39.0 °F 51% 30.14 in 10.0 mi NNW 5.8 mph - N/A   Mostly Cloudy
8:15 AM 57.2 °F 38.7 °F 50% 30.15 in 10.0 mi NNW 4.6 mph - N/A   Overcast
8:35 AM 56.7 °F 39.7 °F 53% 30.15 in 10.0 mi North 5.8 mph - N/A Rain Light Rain
8:55 AM 56.3 °F 41.2 °F 57% 30.14 in 10.0 mi North 3.5 mph - N/A Rain Light Rain
9:15 AM 55.8 °F 41.7 °F 59% 30.14 in 10.0 mi NNW 4.6 mph - N/A Rain Light Rain
9:35 AM 53.8 °F 44.8 °F 72% 30.16 in 7.0 mi Calm Calm - 0.01 in Rain Light Rain
9:55 AM 53.1 °F 48.6 °F 85% 30.18 in 10.0 mi WNW 3.5 mph - 0.01 in Rain Light Rain
10:15 AM 52.7 °F 48.2 °F 85% 30.18 in 10.0 mi NW 4.6 mph - N/A Rain Light Rain
10:55 AM 54.1 °F 46.8 °F 76% 30.14 in 10.0 mi North 4.6 mph - N/A Rain Light Rain
11:15 AM 54.9 °F 46.6 °F 74% 30.16 in 10.0 mi North 6.9 mph - N/A   Clear
11:35 AM 55.9 °F 47.3 °F 73% 30.18 in 10.0 mi North - - N/A   Clear
11:55 AM 56.1 °F 45.0 °F 66% 30.18 in 10.0 mi NNW 9.2 mph - N/A   Clear
12:15 PM 57.4 °F 46.0 °F 66% 30.16 in 10.0 mi NNW 9.2 mph - N/A   Clear
12:35 PM 57.4 °F 46.0 °F 66% 30.15 in 10.0 mi NNW 6.9 mph - N/A   Clear
12:55 PM 60.8 °F 45.9 °F 58% 30.13 in 10.0 mi North 6.9 mph - N/A   Clear
1:15 PM 63.1 °F 44.8 °F 51% 30.12 in 10.0 mi North 5.8 mph - N/A   Clear
1:35 PM 64.6 °F 45.1 °F 49% 30.11 in 10.0 mi NNW 12.7 mph - N/A   Clear
1:55 PM 66.9 °F 44.8 °F 45% 30.10 in 10.0 mi North 9.2 mph 16.1 mph N/A   Clear
2:15 PM 68.5 °F 43.7 °F 41% 30.09 in 10.0 mi North 10.4 mph 17.3 mph N/A   Clear
2:35 PM 69.3 °F 40.1 °F 35% 30.07 in 10.0 mi North 13.8 mph 21.9 mph N/A   Clear
2:55 PM 69.3 °F 38.7 °F 33% 30.06 in 10.0 mi NNW 11.5 mph 18.4 mph N/A   Clear
3:15 PM 70.0 °F 35.4 °F 28% 30.05 in 10.0 mi North 11.5 mph 20.7 mph N/A   Clear
3:35 PM 70.5 °F 36.1 °F 28% 30.03 in 10.0 mi North 11.5 mph 20.7 mph N/A   Clear
3:55 PM 71.2 °F 34.7 °F 26% 30.03 in 10.0 mi North 6.9 mph - N/A   Clear
4:15 PM 70.9 °F 33.6 °F 25% 30.03 in 10.0 mi North 8.1 mph 17.3 mph N/A   Clear
4:35 PM 70.9 °F 30.0 °F 22% 30.03 in 10.0 mi NNW 9.2 mph 17.3 mph N/A   Clear
4:55 PM 70.9 °F 27.9 °F 20% 30.03 in 10.0 mi North 11.5 mph 18.4 mph N/A   Clear
5:15 PM 70.2 °F 28.0 °F 21% 30.03 in 10.0 mi North 8.1 mph 17.3 mph N/A   Clear
5:35 PM 69.8 °F 29.8 °F 23% 30.03 in 10.0 mi North 8.1 mph 16.1 mph N/A   Clear
5:55 PM 69.4 °F 30.0 °F 23% 30.03 in 10.0 mi North 5.8 mph - N/A   Clear
6:15 PM 68.9 °F 30.6 °F 24% 30.03 in 10.0 mi NNE 6.9 mph - N/A   Clear
6:35 PM 68.0 °F 30.7 °F 25% 30.03 in 10.0 mi North 4.6 mph - N/A   Clear
6:55 PM 66.9 °F 29.7 °F 25% 30.03 in 10.0 mi North 5.8 mph - N/A   Clear
7:15 PM 65.1 °F 30.0 °F 27% 30.04 in 10.0 mi North 5.8 mph - N/A   Mostly Cloudy
7:35 PM 64.6 °F 28.4 °F 26% 30.04 in 7.0 mi North 4.6 mph - N/A   Overcast
7:55 PM 63.0 °F 28.4 °F 27% 30.05 in 7.0 mi North 5.8 mph - N/A   Overcast
8:15 PM 61.9 °F 28.4 °F 28% 30.05 in 7.0 mi North 4.6 mph - N/A   Mostly Cloudy
8:35 PM 60.8 °F 27.7 °F 28% 30.05 in 7.0 mi North 4.6 mph - N/A   Clear
8:55 PM 59.0 °F 28.4 °F 31% 30.06 in 10.0 mi NNW 5.8 mph - N/A   Clear
9:15 PM 59.5 °F 27.5 °F 30% 30.06 in 10.0 mi North 4.6 mph - N/A   Clear
9:35 PM 58.8 °F 27.3 °F 30% 30.06 in 10.0 mi North 6.9 mph - N/A   Clear
9:55 PM 58.5 °F 26.2 °F 29% 30.06 in 10.0 mi North 5.8 mph - N/A   Clear
10:15 PM 57.2 °F 26.4 °F 31% 30.07 in 10.0 mi North 5.8 mph - N/A   Clear
10:35 PM 57.6 °F 25.0 °F 29% 30.07 in 10.0 mi North 4.6 mph - N/A   Clear
10:55 PM 56.7 °F 24.6 °F 29% 30.07 in 10.0 mi North 4.6 mph - N/A   Clear
11:15 PM 56.3 °F 24.6 °F 29% 30.07 in 10.0 mi Calm Calm - N/A   Clear
11:35 PM 54.9 °F 25.9 °F 33% 30.07 in 10.0 mi North 3.5 mph - N/A   Clear
11:55 PM 54.5 °F 25.5 °F 33% 30.06 in 10.0 mi Calm Calm - N/A   Clear